createdAt,value
2023-05-05T00:01:30.849Z,0.90
2023-05-05T00:03:57.586Z,0.93
2023-05-05T00:06:24.381Z,0.80
2023-05-05T00:08:51.168Z,0.77
2023-05-05T00:11:18.127Z,1.00
2023-05-05T00:13:44.873Z,0.88
2023-05-05T00:16:11.549Z,0.85
2023-05-05T00:18:38.333Z,1.00
2023-05-05T00:21:05.042Z,1.00
2023-05-05T00:23:31.863Z,0.90
2023-05-05T00:25:58.544Z,0.88
2023-05-05T00:28:25.258Z,0.82
2023-05-05T00:30:52.152Z,1.27
2023-05-05T00:33:18.880Z,1.00
2023-05-05T00:35:45.549Z,1.17
2023-05-05T00:38:12.629Z,0.82
2023-05-05T00:40:39.419Z,0.90
2023-05-05T00:43:07.624Z,1.00
2023-05-05T00:45:36.967Z,1.08
2023-05-05T00:48:04.378Z,1.10
2023-05-05T00:50:31.493Z,1.10
2023-05-05T00:53:01.650Z,0.98
2023-05-05T00:55:29.719Z,1.10
2023-05-05T00:57:57.972Z,1.00
2023-05-05T01:00:25.168Z,0.70
2023-05-05T01:02:52.689Z,1.00
2023-05-05T01:05:22.386Z,1.15
2023-05-05T01:08:30.988Z,1.10
2023-05-05T01:11:14.326Z,1.20
2023-05-05T01:14:13.222Z,1.20
2023-05-05T01:17:04.746Z,0.90
2023-05-05T01:19:31.483Z,1.13
2023-05-05T01:22:02.336Z,1.30
2023-05-05T01:24:41.563Z,1.40
2023-05-05T01:27:18.074Z,1.10
2023-05-05T01:30:35.843Z,1.10
2023-05-05T01:33:06.721Z,1.27
2023-05-05T01:35:39.970Z,1.10
2023-05-05T01:38:13.650Z,1.33
2023-05-05T01:40:50.019Z,1.42
2023-05-05T01:43:20.206Z,1.48
2023-05-05T01:45:48.243Z,1.42
2023-05-05T01:48:18.419Z,1.40
2023-05-05T01:50:46.807Z,1.45
2023-05-05T01:53:14.781Z,1.50
2023-05-05T01:55:42.801Z,1.48
2023-05-05T01:58:10.994Z,1.38
2023-05-05T02:00:38.711Z,1.30
2023-05-05T02:03:07.928Z,1.40
2023-05-05T02:05:36.952Z,1.45
2023-05-05T02:08:05.738Z,1.65
2023-05-05T02:10:33.099Z,1.58
2023-05-05T02:13:02.811Z,1.20
2023-05-05T02:15:30.465Z,1.70
2023-05-05T02:17:59.482Z,1.73
2023-05-05T02:20:28.856Z,1.30
2023-05-05T02:22:55.630Z,1.42
2023-05-05T02:25:24.905Z,1.50
2023-05-05T02:27:54.804Z,1.20
2023-05-05T02:30:23.156Z,1.38
2023-05-05T02:33:01.702Z,1.45
2023-05-05T02:35:40.337Z,1.45
2023-05-05T02:38:13.329Z,1.40
2023-05-05T02:40:43.465Z,1.90
2023-05-05T02:43:11.627Z,1.60
2023-05-05T02:45:38.597Z,1.50
2023-05-05T02:48:05.976Z,1.70
2023-05-05T02:50:33.173Z,1.25
2023-05-05T02:53:00.644Z,1.60
2023-05-05T02:55:38.232Z,1.30
2023-05-05T02:58:16.640Z,1.15
2023-05-05T03:01:05.131Z,1.48
2023-05-05T03:03:41.070Z,1.65
2023-05-05T03:06:13.169Z,1.58
2023-05-05T03:09:06.349Z,1.30
2023-05-05T03:11:38.324Z,1.30
2023-05-05T03:14:11.674Z,1.33
2023-05-05T03:16:40.810Z,1.30
2023-05-05T03:19:10.196Z,1.50
2023-05-05T03:21:37.254Z,1.38
2023-05-05T03:24:21.694Z,1.70
2023-05-05T03:26:50.288Z,1.70
2023-05-05T03:29:17.319Z,1.50
2023-05-05T03:31:44.119Z,1.52
2023-05-05T03:34:11.034Z,1.70
2023-05-05T03:36:38.725Z,1.42
2023-05-05T03:39:05.641Z,1.60
2023-05-05T03:41:32.350Z,1.60
2023-05-05T03:43:59.119Z,1.60
2023-05-05T03:46:26.013Z,1.73
2023-05-05T03:48:52.828Z,1.58
2023-05-05T03:51:19.567Z,1.45
2023-05-05T03:53:46.651Z,1.40
2023-05-05T03:56:13.428Z,1.80
2023-05-05T03:58:40.116Z,1.40
2023-05-05T04:01:06.791Z,1.60
2023-05-05T04:03:33.672Z,1.55
2023-05-05T04:06:00.491Z,1.45
2023-05-05T04:08:27.200Z,1.80
2023-05-05T04:10:53.897Z,1.55
2023-05-05T04:13:20.778Z,1.80
2023-05-05T04:15:47.524Z,1.55
2023-05-05T04:18:14.336Z,1.60
2023-05-05T04:20:41.159Z,1.60
2023-05-05T04:23:08.016Z,1.48
2023-05-05T04:25:34.792Z,1.45
2023-05-05T04:28:01.587Z,1.55
2023-05-05T04:30:28.327Z,1.77
2023-05-05T04:32:55.155Z,1.77
2023-05-05T04:35:22.365Z,1.55
2023-05-05T04:37:49.471Z,2.03
2023-05-05T04:40:16.394Z,1.67
2023-05-05T04:42:43.122Z,1.77
2023-05-05T04:45:10.319Z,1.77
2023-05-05T04:47:41.016Z,1.85
2023-05-05T04:50:08.438Z,1.65
2023-05-05T04:52:35.826Z,1.27
2023-05-05T04:55:02.701Z,1.70
2023-05-05T04:57:30.768Z,1.42
2023-05-05T04:59:59.534Z,1.38
2023-05-05T05:02:27.206Z,1.30
2023-05-05T05:04:53.978Z,1.73
2023-05-05T05:07:20.826Z,1.38
2023-05-05T05:09:47.594Z,1.40
2023-05-05T05:12:14.372Z,1.50
2023-05-05T05:14:41.338Z,1.50
2023-05-05T05:17:08.199Z,1.40
2023-05-05T05:19:36.074Z,1.30
2023-05-05T05:22:06.836Z,1.20
2023-05-05T05:24:36.893Z,1.00
2023-05-05T05:27:09.805Z,1.17
2023-05-05T05:29:37.278Z,1.13
2023-05-05T05:32:04.229Z,1.20
2023-05-05T05:34:34.207Z,1.20
2023-05-05T05:37:01.473Z,1.17
2023-05-05T05:39:28.376Z,1.15
2023-05-05T05:41:55.269Z,1.38
2023-05-05T05:44:22.108Z,0.93
2023-05-05T05:46:48.921Z,1.00
2023-05-05T05:49:16.739Z,1.25
2023-05-05T05:51:43.766Z,1.05
2023-05-05T05:54:10.474Z,1.00
2023-05-05T05:56:40.371Z,1.30
2023-05-05T05:59:08.608Z,1.00
2023-05-05T06:01:35.731Z,1.42
2023-05-05T06:04:02.639Z,0.80
2023-05-05T06:06:29.482Z,1.23
2023-05-05T06:08:59.711Z,1.13
2023-05-05T06:11:26.518Z,1.17
2023-05-05T06:13:53.347Z,1.10
2023-05-05T06:16:20.126Z,0.90
2023-05-05T06:18:46.978Z,0.88
2023-05-05T06:21:13.712Z,1.02
2023-05-05T06:23:44.343Z,1.15
2023-05-05T06:26:11.176Z,1.20
2023-05-05T06:28:37.953Z,1.10
2023-05-05T06:31:04.926Z,1.00
2023-05-05T06:33:31.760Z,1.17
2023-05-05T06:35:58.714Z,1.10
2023-05-05T06:38:25.512Z,0.88
2023-05-05T06:40:52.334Z,0.90
2023-05-05T06:43:22.755Z,0.88
2023-05-05T06:45:49.536Z,0.95
2023-05-05T06:48:16.350Z,1.00
2023-05-05T06:50:43.236Z,0.90
2023-05-05T06:53:10.923Z,0.88
2023-05-05T06:55:38.076Z,1.00
2023-05-05T06:58:07.201Z,1.35
2023-05-05T07:00:34.265Z,0.93
2023-05-05T07:03:01.663Z,1.25
2023-05-05T07:05:28.719Z,0.90
2023-05-05T07:07:57.087Z,1.20
2023-05-05T07:10:25.011Z,1.20
2023-05-05T07:12:52.717Z,1.00
2023-05-05T07:15:27.539Z,0.98
2023-05-05T07:17:56.844Z,0.90
2023-05-05T07:20:25.402Z,0.75
2023-05-05T07:22:52.391Z,0.70
2023-05-05T07:25:22.857Z,0.85
2023-05-05T07:27:49.688Z,0.60
2023-05-05T07:30:20.228Z,0.80
2023-05-05T07:32:47.274Z,0.85
2023-05-05T07:35:14.130Z,0.80
2023-05-05T07:37:45.468Z,1.00
2023-05-05T07:40:13.176Z,0.93
2023-05-05T07:42:40.148Z,0.90
2023-05-05T07:45:08.023Z,1.23
2023-05-05T07:47:34.879Z,0.85
2023-05-05T07:50:01.717Z,0.77
2023-05-05T07:52:44.150Z,0.68
2023-05-05T07:55:13.233Z,1.00
2023-05-05T07:57:40.054Z,0.90
2023-05-05T08:00:07.759Z,0.80
2023-05-05T08:02:35.023Z,0.80
2023-05-05T08:05:01.853Z,0.93
2023-05-05T08:07:28.554Z,0.73
2023-05-05T08:09:55.504Z,0.82
2023-05-05T08:12:22.331Z,0.93
2023-05-05T08:14:49.088Z,0.93
2023-05-05T08:17:18.465Z,0.93
2023-05-05T08:19:45.325Z,0.80
2023-05-05T08:22:12.111Z,0.90
2023-05-05T08:24:38.893Z,0.75
2023-05-05T08:27:05.885Z,0.88
2023-05-05T08:29:32.660Z,0.98
2023-05-05T08:31:59.589Z,1.00
2023-05-05T08:34:26.621Z,0.90
2023-05-05T08:36:53.456Z,0.70
2023-05-05T08:39:20.646Z,0.63
2023-05-05T08:41:47.549Z,0.80
2023-05-05T08:44:14.310Z,0.75
2023-05-05T08:46:42.852Z,1.08
2023-05-05T08:49:16.326Z,0.88
2023-05-05T08:51:45.872Z,0.80
2023-05-05T08:54:18.504Z,0.65
2023-05-05T08:56:53.448Z,0.80
2023-05-05T08:59:25.285Z,0.80
2023-05-05T09:01:56.233Z,0.70
2023-05-05T09:04:27.177Z,0.80
2023-05-05T09:06:57.306Z,0.60
2023-05-05T09:09:24.673Z,0.63
2023-05-05T09:11:53.766Z,1.05
2023-05-05T09:17:04.687Z,0.90
2023-05-05T09:19:31.585Z,1.00
2023-05-05T09:21:58.342Z,0.60
2023-05-05T09:24:25.551Z,0.65
2023-05-05T09:26:52.370Z,0.63
2023-05-05T09:29:20.741Z,0.57
2023-05-05T09:32:05.568Z,1.00
2023-05-05T09:34:35.270Z,0.75
2023-05-05T09:37:02.034Z,0.73
2023-05-05T09:39:29.328Z,0.88
2023-05-05T09:41:56.326Z,0.70
2023-05-05T09:44:38.505Z,0.85
2023-05-05T09:47:11.967Z,0.80
2023-05-05T09:49:45.268Z,1.17
2023-05-05T09:52:17.449Z,1.00
2023-05-05T09:54:44.390Z,0.80
2023-05-05T09:57:33.056Z,0.95
2023-05-05T10:00:01.821Z,1.00
2023-05-05T10:02:38.775Z,0.98
2023-05-05T10:05:14.471Z,1.13
2023-05-05T10:07:46.225Z,0.70
2023-05-05T10:10:15.142Z,0.90
2023-05-05T10:12:42.527Z,0.80
2023-05-05T10:15:11.296Z,0.73
2023-05-05T10:18:02.227Z,0.80
2023-05-05T10:20:35.740Z,0.88
2023-05-05T10:23:06.810Z,0.80
2023-05-05T10:25:42.740Z,0.98
2023-05-05T10:28:16.739Z,0.60
2023-05-05T10:30:46.198Z,0.80
2023-05-05T10:33:31.528Z,0.68
2023-05-05T10:36:02.123Z,0.80
2023-05-05T10:38:32.279Z,1.00
2023-05-05T10:41:01.468Z,1.13
2023-05-05T10:43:29.656Z,0.80
2023-05-05T10:45:57.125Z,1.00
2023-05-05T10:48:44.745Z,0.80
2023-05-05T10:51:27.455Z,0.90
2023-05-05T10:54:24.761Z,0.80
2023-05-05T10:56:51.879Z,1.10
2023-05-05T10:59:40.224Z,0.75
2023-05-05T11:02:27.890Z,0.90
2023-05-05T11:05:26.027Z,1.20
2023-05-05T11:07:52.714Z,1.08
2023-05-05T11:10:21.189Z,0.93
2023-05-05T11:12:57.953Z,0.65
2023-05-05T11:15:27.803Z,0.95
2023-05-05T11:17:55.332Z,0.93
2023-05-05T11:20:37.625Z,1.00
2023-05-05T11:23:04.641Z,0.80
2023-05-05T11:25:35.052Z,0.82
2023-05-05T11:28:05.395Z,1.08
2023-05-05T11:30:32.122Z,0.65
2023-05-05T11:33:33.552Z,0.57
2023-05-05T11:36:05.766Z,0.90
2023-05-05T11:39:00.822Z,0.90
2023-05-05T11:41:52.309Z,0.70
2023-05-05T11:44:21.006Z,0.70
2023-05-05T11:46:54.387Z,0.70
2023-05-05T11:49:32.100Z,0.85
2023-05-05T11:52:13.099Z,0.70
2023-05-05T11:54:47.817Z,0.80
2023-05-05T11:57:23.408Z,0.90
2023-05-05T11:59:56.027Z,0.80
2023-05-05T12:02:24.414Z,0.90
2023-05-05T12:04:51.751Z,0.70
2023-05-05T12:07:23.267Z,0.90
2023-05-05T12:12:17.447Z,0.90
2023-05-05T12:14:52.704Z,0.82
2023-05-05T12:17:21.592Z,0.90
2023-05-05T12:19:55.328Z,1.00
2023-05-05T12:22:27.199Z,0.90
2023-05-05T12:24:57.689Z,0.85
2023-05-05T12:27:26.324Z,0.90
2023-05-05T12:29:55.209Z,0.70
2023-05-05T12:32:24.682Z,0.93
2023-05-05T12:34:57.213Z,1.42
2023-05-05T12:37:25.759Z,0.60
2023-05-05T12:39:54.885Z,0.65
2023-05-05T12:42:22.615Z,0.90
2023-05-05T12:44:49.749Z,1.10
2023-05-05T12:47:31.490Z,0.82
2023-05-05T12:50:00.661Z,0.88
2023-05-05T12:52:44.877Z,0.85
2023-05-05T12:55:12.555Z,0.70
2023-05-05T12:57:58.058Z,0.70
2023-05-05T13:00:25.513Z,0.88
2023-05-05T13:02:53.064Z,0.75
2023-05-05T13:05:31.519Z,0.80
2023-05-05T13:07:58.201Z,0.90
2023-05-05T13:10:25.131Z,0.70
2023-05-05T13:12:55.543Z,0.88
2023-05-05T13:15:22.320Z,0.77
2023-05-05T13:17:49.176Z,0.75
2023-05-05T13:20:15.956Z,0.82
2023-05-05T13:22:42.656Z,0.88
2023-05-05T13:25:09.556Z,0.98
2023-05-05T13:27:37.888Z,0.75
2023-05-05T13:30:04.987Z,0.80
2023-05-05T13:32:31.714Z,0.80
2023-05-05T13:34:58.503Z,0.98
2023-05-05T13:37:25.624Z,0.88
2023-05-05T13:39:52.516Z,0.80
2023-05-05T13:42:19.224Z,0.75
2023-05-05T13:44:46.522Z,0.80
2023-05-05T13:47:14.105Z,0.75
2023-05-05T13:49:40.981Z,0.70
2023-05-05T13:52:07.988Z,0.65
2023-05-05T13:54:34.660Z,0.93
2023-05-05T13:57:01.349Z,0.73
2023-05-05T13:59:28.286Z,0.77
2023-05-05T14:01:54.984Z,0.80
2023-05-05T14:04:21.869Z,0.75
2023-05-05T14:06:48.613Z,1.13
2023-05-05T14:09:15.294Z,1.00
2023-05-05T14:11:42.020Z,0.70
2023-05-05T14:14:08.831Z,0.95
2023-05-05T14:16:35.586Z,0.80
2023-05-05T14:19:02.292Z,0.70
2023-05-05T14:21:28.977Z,0.90
2023-05-05T14:23:55.805Z,0.90
2023-05-05T14:26:22.524Z,0.80
2023-05-05T14:28:50.067Z,0.82
2023-05-05T14:31:17.666Z,0.90
2023-05-05T14:33:44.346Z,0.73
2023-05-05T14:36:11.101Z,0.90
2023-05-05T14:38:37.884Z,0.70
2023-05-05T14:41:04.888Z,0.80
2023-05-05T14:43:31.629Z,0.90
2023-05-05T14:46:00.409Z,0.88
2023-05-05T14:48:28.010Z,0.70
2023-05-05T14:50:54.714Z,0.60
2023-05-05T14:53:21.366Z,1.10
2023-05-05T14:55:48.080Z,0.47
2023-05-05T14:58:14.811Z,0.52
2023-05-05T15:00:41.506Z,0.68
2023-05-05T15:03:08.336Z,0.70
2023-05-05T15:05:35.263Z,0.98
2023-05-05T15:08:01.974Z,1.10
2023-05-05T15:10:28.700Z,0.98
2023-05-05T15:12:55.570Z,0.80
2023-05-05T15:15:22.751Z,0.90
2023-05-05T15:17:49.573Z,0.60
2023-05-05T15:20:16.271Z,0.73
2023-05-05T15:22:43.004Z,0.70
2023-05-05T15:25:12.426Z,0.63
2023-05-05T15:27:39.765Z,1.08
2023-05-05T15:30:07.238Z,0.88
2023-05-05T15:32:34.213Z,0.70
2023-05-05T15:35:01.089Z,0.70
2023-05-05T15:37:28.900Z,0.82
2023-05-05T15:39:55.798Z,0.50
2023-05-05T15:42:22.713Z,1.00
2023-05-05T15:44:49.370Z,0.70
2023-05-05T15:47:16.341Z,0.70
2023-05-05T15:49:43.021Z,1.00
2023-05-05T15:52:09.805Z,0.63
2023-05-05T15:54:36.495Z,0.80
2023-05-05T15:57:03.228Z,0.88
2023-05-05T15:59:30.039Z,0.65
2023-05-05T16:01:56.938Z,0.70
2023-05-05T16:04:23.784Z,0.90
2023-05-05T16:06:50.748Z,0.68
2023-05-05T16:09:17.757Z,0.75
2023-05-05T16:11:44.620Z,0.77
2023-05-05T16:14:11.369Z,0.75
2023-05-05T16:16:38.449Z,0.77
2023-05-05T16:19:05.226Z,0.68
2023-05-05T16:21:31.945Z,0.90
2023-05-05T16:23:58.745Z,0.60
2023-05-05T16:26:25.445Z,0.57
2023-05-05T16:28:52.500Z,0.65
2023-05-05T16:31:19.265Z,0.70
2023-05-05T16:33:46.220Z,0.65
2023-05-05T16:36:13.159Z,0.80
2023-05-05T16:38:40.628Z,0.90
2023-05-05T16:41:07.745Z,0.63
2023-05-05T16:43:35.906Z,1.00
2023-05-05T16:46:03.779Z,0.60
2023-05-05T16:48:30.496Z,0.88
2023-05-05T16:50:57.877Z,0.73
2023-05-05T16:53:25.366Z,0.70
2023-05-05T16:55:53.045Z,0.90
2023-05-05T16:58:20.713Z,0.80
2023-05-05T17:00:49.039Z,0.70
2023-05-05T17:03:17.028Z,0.73
2023-05-05T17:05:46.155Z,0.80
2023-05-05T17:08:14.541Z,0.80
2023-05-05T17:10:42.122Z,0.75
2023-05-05T17:13:09.782Z,0.70
2023-05-05T17:15:37.495Z,0.63
2023-05-05T17:18:05.420Z,0.73
2023-05-05T17:20:32.934Z,1.00
2023-05-05T17:22:59.751Z,0.80
2023-05-05T17:25:26.583Z,0.90
2023-05-05T17:27:53.371Z,1.10
2023-05-05T17:30:20.462Z,0.80
2023-05-05T17:32:47.541Z,0.77
2023-05-05T17:35:14.811Z,0.85
2023-05-05T17:37:41.592Z,0.77
2023-05-05T17:40:08.686Z,0.95
2023-05-05T17:42:35.451Z,0.70
2023-05-05T17:45:03.291Z,0.60
2023-05-05T17:47:30.042Z,0.65
2023-05-05T17:49:57.006Z,0.82
2023-05-05T17:52:24.668Z,1.13
2023-05-05T17:54:51.817Z,1.17
2023-05-05T17:57:20.981Z,0.85
2023-05-05T17:59:53.448Z,0.73
2023-05-05T18:02:20.496Z,0.80
2023-05-05T18:04:47.808Z,1.40
2023-05-05T18:07:14.661Z,1.30
2023-05-05T18:09:41.538Z,1.10
2023-05-05T18:12:08.314Z,1.02
2023-05-05T18:14:35.756Z,1.23
2023-05-05T18:17:02.665Z,1.50
2023-05-05T18:19:29.366Z,0.70
2023-05-05T18:21:56.045Z,0.80
2023-05-05T18:24:23.124Z,0.75
2023-05-05T18:26:52.600Z,0.70
2023-05-05T18:29:21.764Z,1.30
2023-05-05T18:31:51.590Z,1.20
2023-05-05T18:34:19.383Z,1.13
2023-05-05T18:36:46.494Z,0.90
2023-05-05T18:39:13.892Z,1.17
2023-05-05T18:41:41.092Z,1.05
2023-05-05T18:44:08.035Z,0.70
2023-05-05T18:46:34.906Z,2.10
2023-05-05T18:49:01.797Z,1.00
2023-05-05T18:51:28.812Z,1.00
2023-05-05T18:53:55.521Z,0.75
2023-05-05T18:56:22.245Z,0.95
2023-05-05T18:58:49.377Z,0.80
2023-05-05T19:01:16.405Z,0.73
2023-05-05T19:03:47.975Z,0.85
2023-05-05T19:06:15.213Z,0.85
2023-05-05T19:08:42.739Z,0.90
2023-05-05T19:11:09.498Z,1.00
2023-05-05T19:13:36.316Z,0.90
2023-05-05T19:16:03.223Z,1.00
2023-05-05T19:18:30.040Z,0.90
2023-05-05T19:20:56.730Z,1.02
2023-05-05T19:23:23.418Z,0.80
2023-05-05T19:25:53.353Z,0.90
2023-05-05T19:28:20.182Z,1.20
2023-05-05T19:30:48.547Z,2.00
2023-05-05T19:33:16.065Z,1.30
2023-05-05T19:35:43.265Z,1.50
2023-05-05T19:38:10.398Z,1.40
2023-05-05T19:40:40.443Z,1.45
2023-05-05T19:43:07.869Z,1.20
2023-05-05T19:45:34.668Z,0.90
2023-05-05T19:48:01.799Z,1.00
2023-05-05T19:50:30.351Z,1.10
2023-05-05T19:52:57.445Z,0.77
2023-05-05T19:55:24.508Z,0.85
2023-05-05T19:57:51.282Z,0.93
2023-05-05T20:00:18.709Z,2.20
2023-05-05T20:02:45.772Z,0.90
2023-05-05T20:05:14.127Z,1.10
2023-05-05T20:07:42.123Z,0.73
2023-05-05T20:10:09.817Z,0.90
2023-05-05T20:12:36.904Z,0.75
2023-05-05T20:15:03.839Z,0.70
2023-05-05T20:17:30.635Z,0.70
2023-05-05T20:19:57.940Z,1.52
2023-05-05T20:22:26.427Z,0.73
2023-05-05T20:24:53.494Z,1.00
2023-05-05T20:27:20.928Z,0.50
2023-05-05T20:29:48.203Z,1.02
2023-05-05T20:32:15.650Z,0.85
2023-05-05T20:34:42.384Z,0.75
2023-05-05T20:37:10.033Z,0.60
2023-05-05T20:39:38.098Z,0.80
2023-05-05T20:42:04.946Z,0.60
2023-05-05T20:44:31.632Z,0.60
2023-05-05T20:46:58.494Z,0.70
2023-05-05T20:49:25.315Z,0.70
2023-05-05T20:51:52.076Z,0.60
2023-05-05T20:54:18.788Z,0.70
2023-05-05T20:56:45.547Z,0.65
2023-05-05T20:59:12.270Z,0.82
2023-05-05T21:01:38.959Z,0.80
2023-05-05T21:04:06.187Z,0.60
2023-05-05T21:06:33.088Z,0.85
2023-05-05T21:09:00.186Z,0.80
2023-05-05T21:11:26.916Z,0.70
2023-05-05T21:13:53.774Z,0.60
2023-05-05T21:16:20.487Z,0.70
2023-05-05T21:18:47.391Z,0.70
2023-05-05T21:21:14.100Z,0.70
2023-05-05T21:23:40.848Z,0.95
2023-05-05T21:26:07.611Z,0.68
2023-05-05T21:28:34.322Z,0.50
2023-05-05T21:31:20.497Z,1.05
2023-05-05T21:33:47.765Z,0.70
2023-05-05T21:36:19.196Z,0.60
2023-05-05T21:41:12.837Z,0.70
2023-05-05T21:43:39.546Z,0.77
2023-05-05T21:46:06.291Z,0.82
2023-05-05T21:48:33.230Z,0.80
2023-05-05T21:51:00.086Z,0.68
2023-05-05T21:53:26.818Z,0.70
2023-05-05T21:55:53.479Z,0.70
2023-05-05T21:58:20.301Z,0.70
2023-05-05T22:00:49.737Z,0.75
2023-05-05T22:03:16.795Z,0.70
2023-05-05T22:05:43.595Z,0.90
2023-05-05T22:08:11.194Z,0.80
2023-05-05T22:10:39.140Z,1.10
2023-05-05T22:13:06.075Z,2.45
2023-05-05T22:15:42.642Z,1.83
2023-05-05T22:18:13.192Z,2.00
2023-05-05T22:20:40.610Z,1.33
2023-05-05T22:23:07.402Z,2.75
2023-05-05T22:25:54.086Z,3.22
2023-05-05T22:28:21.536Z,4.70
2023-05-05T22:30:48.226Z,3.53
2023-05-05T22:33:15.338Z,2.70
2023-05-05T22:35:42.204Z,2.25
2023-05-05T22:38:09.027Z,2.30
2023-05-05T22:40:35.918Z,1.17
2023-05-05T22:43:02.594Z,0.90
2023-05-05T22:45:29.398Z,0.80
2023-05-05T22:47:56.181Z,0.60
2023-05-05T22:50:22.959Z,0.80
2023-05-05T22:52:49.704Z,0.80
2023-05-05T22:55:16.381Z,0.80
2023-05-05T22:57:43.195Z,0.80
2023-05-05T23:00:10.752Z,1.08
2023-05-05T23:02:38.203Z,0.85
2023-05-05T23:05:05.341Z,0.80
2023-05-05T23:07:32.264Z,0.80
2023-05-05T23:09:58.966Z,0.80
2023-05-05T23:12:25.684Z,1.00
2023-05-05T23:14:52.481Z,0.88
2023-05-05T23:17:19.668Z,0.80
2023-05-05T23:19:49.819Z,0.82
2023-05-05T23:22:16.623Z,1.00
2023-05-05T23:24:43.326Z,0.80
2023-05-05T23:27:10.044Z,0.90
2023-05-05T23:29:36.765Z,0.80
2023-05-05T23:32:03.550Z,0.90
2023-05-05T23:34:30.280Z,1.00
2023-05-05T23:36:57.149Z,0.90
2023-05-05T23:39:23.817Z,0.90
2023-05-05T23:41:50.513Z,0.90
2023-05-05T23:44:17.196Z,1.00
2023-05-05T23:46:43.923Z,0.98
2023-05-05T23:49:10.654Z,1.00
2023-05-05T23:51:37.576Z,1.00
2023-05-05T23:54:04.504Z,0.82
2023-05-05T23:56:31.228Z,0.70
2023-05-05T23:58:57.937Z,0.90
